createdAt,value
2019-02-28T00:02:29.901Z,16.73
2019-02-28T00:05:00.404Z,14.37
2019-02-28T00:07:30.101Z,15.27
2019-02-28T00:09:59.520Z,15.40
2019-02-28T00:12:29.016Z,16.40
2019-02-28T00:14:59.331Z,14.97
2019-02-28T00:17:28.744Z,14.63
2019-02-28T00:19:58.706Z,15.07
2019-02-28T00:22:28.265Z,15.60
2019-02-28T00:24:57.908Z,14.57
2019-02-28T00:27:27.184Z,14.60
2019-02-28T00:29:57.377Z,15.90
2019-02-28T00:32:26.697Z,16.27
2019-02-28T00:34:55.906Z,17.57
2019-02-28T00:37:25.735Z,17.17
2019-02-28T00:39:55.244Z,17.90
2019-02-28T00:42:24.490Z,16.87
2019-02-28T00:44:54.098Z,16.90
2019-02-28T00:47:23.624Z,18.20
2019-02-28T00:49:55.663Z,17.37
2019-02-28T00:52:24.312Z,17.70
2019-02-28T00:54:53.603Z,18.77
2019-02-28T00:57:23.634Z,18.23
2019-02-28T00:59:54.056Z,18.73
2019-02-28T01:02:23.459Z,17.50
2019-02-28T01:04:53.029Z,17.73
2019-02-28T01:07:23.466Z,17.60
2019-02-28T01:09:52.739Z,17.90
2019-02-28T01:12:22.043Z,17.70
2019-02-28T01:14:51.765Z,19.03
2019-02-28T01:17:21.028Z,17.80
2019-02-28T01:19:52.148Z,16.67
2019-02-28T01:22:21.810Z,17.30
2019-02-28T01:24:52.291Z,17.20
2019-02-28T01:27:21.834Z,17.80
2019-02-28T01:29:51.390Z,16.50
2019-02-28T01:32:20.692Z,17.20
2019-02-28T01:34:49.959Z,16.30
2019-02-28T01:37:21.176Z,17.87
2019-02-28T01:39:51.172Z,17.07
2019-02-28T01:42:20.860Z,17.53
2019-02-28T01:44:50.613Z,17.10
2019-02-28T01:47:21.047Z,17.10
2019-02-28T01:49:50.326Z,16.20
2019-02-28T01:52:19.899Z,16.30
2019-02-28T01:54:49.222Z,16.20
2019-02-28T01:57:18.458Z,17.60
2019-02-28T01:59:48.046Z,17.00
2019-02-28T02:02:17.349Z,15.80
2019-02-28T02:04:46.736Z,16.17
2019-02-28T02:07:15.922Z,17.20
2019-02-28T02:09:46.085Z,17.50
2019-02-28T02:12:16.614Z,18.57
2019-02-28T02:14:45.885Z,17.00
2019-02-28T02:17:15.144Z,17.30
2019-02-28T02:19:44.365Z,19.00
2019-02-28T02:22:13.618Z,19.20
2019-02-28T02:24:43.262Z,18.87
2019-02-28T02:27:12.496Z,18.40
2019-02-28T02:29:41.994Z,18.23
2019-02-28T02:32:11.798Z,17.90
2019-02-28T02:34:41.163Z,19.77
2019-02-28T02:37:10.490Z,19.73
2019-02-28T02:39:40.228Z,19.13
2019-02-28T02:42:11.305Z,18.93
2019-02-28T02:44:40.443Z,19.13
2019-02-28T02:47:10.132Z,20.63
2019-02-28T02:49:39.358Z,20.90
2019-02-28T02:52:08.695Z,22.40
2019-02-28T02:54:38.343Z,20.30
2019-02-28T02:57:07.570Z,20.17
2019-02-28T02:59:38.900Z,20.53
2019-02-28T03:02:08.345Z,19.97
2019-02-28T03:04:37.584Z,19.83
2019-02-28T03:07:06.820Z,19.93
2019-02-28T03:09:36.652Z,20.33
2019-02-28T03:12:06.098Z,18.90
2019-02-28T03:14:38.178Z,19.60
2019-02-28T03:17:11.528Z,18.30
2019-02-28T03:19:38.717Z,18.87
2019-02-28T03:22:07.982Z,19.73
2019-02-28T03:24:37.551Z,18.10
2019-02-28T03:27:06.876Z,17.10
2019-02-28T03:29:43.525Z,19.13
2019-02-28T03:32:09.830Z,18.40
2019-02-28T03:34:39.185Z,17.03
2019-02-28T03:37:08.482Z,17.40
2019-02-28T03:39:38.125Z,16.97
2019-02-28T03:42:07.463Z,18.40
2019-02-28T03:44:36.782Z,16.90
2019-02-28T03:47:06.354Z,18.63
2019-02-28T03:49:35.654Z,19.70
2019-02-28T03:52:07.924Z,17.63
2019-02-28T03:54:37.531Z,17.17
2019-02-28T03:57:06.786Z,18.67
2019-02-28T03:59:36.241Z,17.30
2019-02-28T04:02:10.388Z,17.67
2019-02-28T04:04:39.693Z,16.77
2019-02-28T04:07:15.695Z,17.13
2019-02-28T04:09:44.297Z,16.27
2019-02-28T04:12:12.295Z,17.13
2019-02-28T04:14:42.472Z,15.90
2019-02-28T04:17:11.798Z,16.70
2019-02-28T04:19:41.094Z,16.20
2019-02-28T04:22:10.680Z,16.37
2019-02-28T04:24:40.170Z,15.87
2019-02-28T04:27:09.416Z,15.83
2019-02-28T04:29:38.968Z,16.13
2019-02-28T04:32:08.462Z,16.70
2019-02-28T04:34:37.850Z,17.17
2019-02-28T04:37:08.759Z,18.00
2019-02-28T04:39:38.560Z,15.83
2019-02-28T04:42:07.849Z,16.57
2019-02-28T04:44:37.586Z,16.13
2019-02-28T04:47:07.655Z,15.90
2019-02-28T04:49:36.991Z,16.00
2019-02-28T04:52:07.890Z,15.10
2019-02-28T04:54:37.197Z,16.00
2019-02-28T04:57:06.958Z,15.87
2019-02-28T04:59:36.602Z,15.43
2019-02-28T05:02:06.518Z,15.53
2019-02-28T05:04:36.236Z,14.77
2019-02-28T05:07:06.525Z,15.33
2019-02-28T05:09:35.816Z,15.90
2019-02-28T05:12:06.028Z,14.90
2019-02-28T05:14:35.610Z,16.47
2019-02-28T05:17:05.800Z,14.90
2019-02-28T05:19:37.324Z,15.50
2019-02-28T05:22:06.863Z,17.27
2019-02-28T05:24:36.125Z,17.47
2019-02-28T05:27:05.420Z,17.07
2019-02-28T05:29:34.932Z,15.20
2019-02-28T05:32:07.325Z,18.40
2019-02-28T05:34:36.585Z,21.03
2019-02-28T05:37:11.986Z,16.40
2019-02-28T05:39:37.374Z,18.10
2019-02-28T05:42:06.695Z,18.00
2019-02-28T05:44:37.467Z,16.50
2019-02-28T05:47:07.189Z,16.27
2019-02-28T05:49:36.439Z,18.00
2019-02-28T05:52:08.817Z,17.33
2019-02-28T05:54:38.110Z,16.83
2019-02-28T05:57:08.174Z,17.83
2019-02-28T05:59:38.178Z,15.40
2019-02-28T06:02:07.486Z,16.90
2019-02-28T06:04:37.854Z,17.67
2019-02-28T06:07:09.389Z,17.90
2019-02-28T06:09:39.218Z,16.97
2019-02-28T06:12:09.547Z,16.30
2019-02-28T06:14:39.475Z,16.93
2019-02-28T06:17:08.800Z,15.80
2019-02-28T06:19:43.586Z,15.50
2019-02-28T06:22:12.066Z,18.77
2019-02-28T06:24:44.755Z,21.90
2019-02-28T06:27:12.694Z,20.10
2019-02-28T06:29:41.958Z,20.30
2019-02-28T06:32:13.532Z,20.17
2019-02-28T06:34:43.081Z,20.77
2019-02-28T06:37:12.431Z,20.10
2019-02-28T06:39:41.872Z,19.83
2019-02-28T06:42:12.592Z,19.20
2019-02-28T06:44:41.956Z,17.90
2019-02-28T06:47:14.073Z,18.50
2019-02-28T06:49:42.659Z,19.03
2019-02-28T06:52:11.976Z,19.20
2019-02-28T06:54:41.290Z,19.03
2019-02-28T06:57:10.830Z,19.80
2019-02-28T06:59:40.118Z,19.53
2019-02-28T07:02:09.425Z,20.97
2019-02-28T07:04:39.056Z,21.40
2019-02-28T07:07:10.191Z,22.30
2019-02-28T07:09:39.371Z,20.40
2019-02-28T07:12:08.959Z,20.50
2019-02-28T07:14:38.250Z,20.73
2019-02-28T07:17:10.770Z,45.43
2019-02-28T07:19:38.933Z,23.00
2019-02-28T07:22:09.055Z,21.20
2019-02-28T07:24:38.640Z,19.83
2019-02-28T07:27:08.444Z,19.77
2019-02-28T07:29:37.938Z,21.50
2019-02-28T07:32:07.395Z,18.07
2019-02-28T07:34:38.326Z,16.67
2019-02-28T07:37:07.994Z,18.93
2019-02-28T07:39:40.448Z,20.07
2019-02-28T07:42:10.719Z,19.57
2019-02-28T07:44:40.615Z,18.90
2019-02-28T07:47:10.897Z,16.87
2019-02-28T07:49:41.238Z,17.40
2019-02-28T07:52:11.163Z,16.53
2019-02-28T07:54:40.703Z,16.70
2019-02-28T07:57:11.051Z,16.17
2019-02-28T07:59:42.586Z,15.43
2019-02-28T08:02:12.315Z,16.17
2019-02-28T08:04:44.516Z,15.63
2019-02-28T08:07:14.699Z,16.90
2019-02-28T08:09:46.099Z,16.33
2019-02-28T08:12:16.178Z,16.57
2019-02-28T08:14:48.959Z,15.57
2019-02-28T08:17:22.775Z,16.57
2019-02-28T08:19:53.098Z,16.93
2019-02-28T08:22:25.595Z,17.40
2019-02-28T08:24:57.008Z,16.43
2019-02-28T08:27:26.373Z,17.27
2019-02-28T08:29:56.379Z,19.23
2019-02-28T08:32:25.738Z,17.77
2019-02-28T08:34:58.524Z,18.33
2019-02-28T08:37:26.392Z,18.60
2019-02-28T08:39:55.997Z,17.50
2019-02-28T08:42:25.284Z,19.00
2019-02-28T08:44:58.415Z,19.20
2019-02-28T08:47:26.132Z,18.23
2019-02-28T08:49:55.797Z,18.90
2019-02-28T08:52:25.340Z,18.80
2019-02-28T08:54:54.675Z,19.20
2019-02-28T08:57:25.682Z,17.60
2019-02-28T08:59:56.395Z,19.90
2019-02-28T09:02:26.296Z,21.30
2019-02-28T09:04:55.632Z,21.47
2019-02-28T09:07:25.187Z,20.50
2019-02-28T09:09:54.512Z,20.40
2019-02-28T09:12:23.806Z,19.10
2019-02-28T09:14:55.338Z,21.60
2019-02-28T09:17:24.535Z,21.03
2019-02-28T09:19:53.843Z,21.13
2019-02-28T09:22:26.945Z,19.33
2019-02-28T09:24:54.755Z,19.93
2019-02-28T09:27:24.889Z,21.73
2019-02-28T09:29:55.512Z,21.50
2019-02-28T09:32:25.045Z,20.10
2019-02-28T09:34:54.366Z,21.70
2019-02-28T09:37:23.929Z,20.30
2019-02-28T09:39:55.666Z,20.63
2019-02-28T09:42:25.051Z,21.57
2019-02-28T09:44:54.835Z,20.23
2019-02-28T09:47:26.707Z,20.40
2019-02-28T09:49:55.593Z,20.27
2019-02-28T09:52:25.161Z,20.20
2019-02-28T09:54:56.371Z,20.53
2019-02-28T09:57:25.468Z,21.00
2019-02-28T09:59:55.011Z,22.90
2019-02-28T10:02:24.333Z,21.97
2019-02-28T10:04:53.823Z,22.60
2019-02-28T10:07:26.483Z,22.70
2019-02-28T10:09:56.699Z,21.90
2019-02-28T10:12:25.687Z,22.57
2019-02-28T10:14:54.965Z,22.03
2019-02-28T10:17:25.879Z,21.40
2019-02-28T10:19:55.565Z,21.10
2019-02-28T10:22:24.861Z,21.40
2019-02-28T10:24:54.186Z,21.90
2019-02-28T10:27:26.885Z,23.00
2019-02-28T10:29:55.905Z,21.40
2019-02-28T10:32:25.443Z,22.83
2019-02-28T10:34:55.202Z,21.90
2019-02-28T10:37:24.578Z,22.30
2019-02-28T10:39:54.081Z,22.43
2019-02-28T10:42:23.725Z,23.13
2019-02-28T10:44:53.451Z,22.30
2019-02-28T10:47:28.127Z,23.00
2019-02-28T10:49:55.415Z,23.50
2019-02-28T10:52:27.002Z,22.50
2019-02-28T10:54:56.491Z,23.23
2019-02-28T10:57:25.959Z,23.67
2019-02-28T11:00:06.348Z,23.27
2019-02-28T11:02:38.479Z,22.83
2019-02-28T11:05:15.345Z,23.40
2019-02-28T11:07:46.728Z,22.80
2019-02-28T11:10:16.735Z,22.93
2019-02-28T11:12:46.244Z,24.60
2019-02-28T11:15:17.628Z,22.67
2019-02-28T11:17:47.218Z,23.20
2019-02-28T11:20:22.070Z,22.40
2019-02-28T11:22:49.920Z,24.20
2019-02-28T11:25:23.552Z,24.57
2019-02-28T11:27:54.720Z,24.70
2019-02-28T11:30:24.761Z,24.13
2019-02-28T11:32:55.687Z,22.60
2019-02-28T11:35:25.582Z,23.40
2019-02-28T11:37:55.225Z,22.80
2019-02-28T11:40:27.063Z,22.80
2019-02-28T11:42:59.462Z,22.37
2019-02-28T11:45:31.013Z,21.30
2019-02-28T11:48:03.393Z,21.67
2019-02-28T11:50:32.898Z,20.90
2019-02-28T11:53:05.791Z,21.03
2019-02-28T11:55:33.664Z,20.23
2019-02-28T11:58:05.308Z,19.53
2019-02-28T12:00:50.034Z,18.07
2019-02-28T12:03:19.966Z,19.13
2019-02-28T12:05:50.511Z,14.73
2019-02-28T12:08:22.319Z,16.40
2019-02-28T12:10:51.752Z,17.80
2019-02-28T12:13:21.091Z,24.77
2019-02-28T12:15:50.584Z,15.20
2019-02-28T12:18:20.151Z,15.90
2019-02-28T12:20:49.497Z,15.70
2019-02-28T12:23:22.922Z,15.83
2019-02-28T12:25:50.243Z,16.60
2019-02-28T12:28:19.696Z,15.07
2019-02-28T12:30:48.953Z,14.70
2019-02-28T12:33:23.018Z,14.70
2019-02-28T12:35:51.469Z,15.33
2019-02-28T12:38:20.869Z,14.93
2019-02-28T12:40:50.263Z,14.87
2019-02-28T12:43:19.834Z,14.80
2019-02-28T12:45:49.310Z,14.97
2019-02-28T12:48:18.636Z,14.83
2019-02-28T12:50:48.307Z,14.77
2019-02-28T12:53:17.646Z,13.90
2019-02-28T12:55:46.911Z,15.73
2019-02-28T12:58:16.500Z,15.80
2019-02-28T13:00:46.501Z,13.73
2019-02-28T13:03:19.787Z,13.43
2019-02-28T13:05:49.340Z,12.70
2019-02-28T13:08:18.458Z,14.50
2019-02-28T13:10:47.737Z,15.03
2019-02-28T13:13:20.861Z,13.20
2019-02-28T13:15:49.285Z,13.97
2019-02-28T13:18:18.688Z,13.60
2019-02-28T13:20:48.143Z,13.83
2019-02-28T13:23:17.504Z,12.40
2019-02-28T13:25:48.339Z,14.50
2019-02-28T13:28:21.986Z,14.77
2019-02-28T13:30:51.393Z,17.00
2019-02-28T13:33:20.299Z,18.57
2019-02-28T13:35:49.613Z,18.57
2019-02-28T13:38:20.075Z,18.07
2019-02-28T13:40:52.441Z,18.03
2019-02-28T13:43:22.762Z,18.73
2019-02-28T13:45:55.993Z,20.27
2019-02-28T13:48:26.547Z,17.50
2019-02-28T13:50:55.687Z,18.80
2019-02-28T13:53:27.088Z,19.10
2019-02-28T13:55:57.757Z,19.13
2019-02-28T13:58:28.144Z,18.77
2019-02-28T14:01:00.221Z,16.53
2019-02-28T14:03:30.221Z,18.13
2019-02-28T14:06:00.110Z,19.27
2019-02-28T14:08:29.982Z,19.60
2019-02-28T14:10:59.845Z,18.53
2019-02-28T14:13:30.053Z,18.10
2019-02-28T14:16:00.922Z,21.27
2019-02-28T14:18:30.915Z,18.43
2019-02-28T14:21:02.920Z,19.30
2019-02-28T14:23:31.477Z,19.87
2019-02-28T14:26:03.680Z,18.87
2019-02-28T14:28:36.374Z,19.67
2019-02-28T14:31:07.022Z,18.67
2019-02-28T14:33:36.635Z,18.77
2019-02-28T14:36:10.523Z,18.90
2019-02-28T14:38:40.053Z,18.60
2019-02-28T14:41:13.031Z,20.10
2019-02-28T14:43:42.314Z,17.47
2019-02-28T14:46:15.181Z,20.00
2019-02-28T14:48:43.182Z,19.77
2019-02-28T14:51:12.751Z,18.87
2019-02-28T14:53:45.477Z,20.10
2019-02-28T14:56:16.491Z,19.70
2019-02-28T14:58:45.893Z,19.40
2019-02-28T15:01:18.030Z,17.37
2019-02-28T15:03:46.591Z,19.07
2019-02-28T15:06:16.026Z,18.53
2019-02-28T15:08:47.371Z,22.27
2019-02-28T15:11:16.674Z,18.93
2019-02-28T15:13:46.039Z,19.97
2019-02-28T15:16:18.053Z,18.07
2019-02-28T15:18:51.031Z,17.00
2019-02-28T15:21:18.690Z,17.60
2019-02-28T15:23:48.601Z,18.50
2019-02-28T15:26:18.281Z,18.60
2019-02-28T15:28:48.582Z,17.13
2019-02-28T15:31:18.973Z,16.00
2019-02-28T15:33:48.454Z,16.43
2019-02-28T15:36:20.957Z,16.83
2019-02-28T15:38:49.594Z,17.10
2019-02-28T15:41:19.233Z,17.63
2019-02-28T15:43:50.409Z,15.03
2019-02-28T15:46:20.626Z,16.00
2019-02-28T15:48:50.329Z,14.03
2019-02-28T15:51:19.808Z,12.70
2019-02-28T15:53:50.786Z,12.33
2019-02-28T15:56:20.857Z,13.80
2019-02-28T15:58:51.116Z,14.77
2019-02-28T16:01:21.082Z,15.30
2019-02-28T16:03:54.849Z,16.00
2019-02-28T16:06:24.998Z,15.97
2019-02-28T16:08:54.703Z,16.67
2019-02-28T16:11:24.539Z,16.67
2019-02-28T16:13:57.471Z,18.77
2019-02-28T16:16:26.327Z,19.87
2019-02-28T16:18:57.331Z,19.10
2019-02-28T16:21:27.648Z,84.37
2019-02-28T16:23:58.169Z,24.50
2019-02-28T16:26:28.976Z,24.23
2019-02-28T16:28:59.114Z,24.70
2019-02-28T16:31:28.922Z,24.30
2019-02-28T16:34:08.299Z,26.70
2019-02-28T16:36:35.186Z,24.70
2019-02-28T16:39:06.062Z,24.70
2019-02-28T16:41:36.865Z,23.37
2019-02-28T16:44:07.837Z,23.80
2019-02-28T16:49:44.413Z,18.83
2019-02-28T16:52:14.714Z,17.17
2019-02-28T16:54:44.459Z,16.60
2019-02-28T16:57:14.881Z,14.30
2019-02-28T16:59:47.892Z,12.47
2019-02-28T17:02:17.989Z,12.20
2019-02-28T17:04:48.690Z,9.20
2019-02-28T17:07:19.644Z,7.50
2019-02-28T17:09:49.922Z,7.27
2019-02-28T17:12:37.477Z,7.17
2019-02-28T17:15:42.665Z,6.73
2019-02-28T17:18:18.415Z,7.50
2019-02-28T17:20:47.902Z,7.20
2019-02-28T17:23:18.724Z,9.20
2019-02-28T17:25:49.118Z,8.20
2019-02-28T17:28:29.096Z,7.50
2019-02-28T17:31:13.615Z,8.47
2019-02-28T17:33:46.638Z,8.60
2019-02-28T17:36:15.717Z,8.13
2019-02-28T17:38:45.854Z,7.63
2019-02-28T17:41:16.515Z,7.80
2019-02-28T17:44:37.549Z,7.00
2019-02-28T17:47:16.954Z,6.60
2019-02-28T17:50:32.384Z,6.10
2019-02-28T17:53:30.095Z,6.90
2019-02-28T17:56:51.449Z,6.90
2019-02-28T17:59:46.769Z,6.70
2019-02-28T18:03:06.397Z,7.47
2019-02-28T18:06:08.821Z,6.80
2019-02-28T18:09:05.769Z,8.03
2019-02-28T18:12:17.600Z,7.87
2019-02-28T18:15:34.198Z,8.60
2019-02-28T18:18:41.606Z,7.63
2019-02-28T18:21:52.360Z,8.47
2019-02-28T18:25:05.886Z,6.97
2019-02-28T18:28:06.790Z,6.83
2019-02-28T18:31:13.023Z,7.50
2019-02-28T18:33:48.964Z,7.40
2019-02-28T18:36:20.545Z,7.37
2019-02-28T18:38:51.625Z,7.63
2019-02-28T18:41:22.282Z,8.70
2019-02-28T18:43:51.974Z,9.03
2019-02-28T18:46:21.798Z,8.20
2019-02-28T18:48:54.425Z,8.40
2019-02-28T18:51:24.764Z,9.47
2019-02-28T18:53:58.289Z,8.40
2019-02-28T18:56:28.579Z,9.00
2019-02-28T18:58:58.349Z,9.10
2019-02-28T19:01:28.278Z,8.20
2019-02-28T19:03:58.842Z,8.67
2019-02-28T19:06:32.026Z,9.90
2019-02-28T19:09:02.207Z,9.80
2019-02-28T19:11:32.398Z,9.13
2019-02-28T19:14:05.702Z,9.20
2019-02-28T19:16:35.645Z,11.13
2019-02-28T19:19:06.089Z,9.53
2019-02-28T19:21:35.987Z,10.97
2019-02-28T19:24:08.894Z,11.13
2019-02-28T19:26:39.169Z,12.60
2019-02-28T19:29:11.163Z,12.20
2019-02-28T19:31:41.170Z,12.00
2019-02-28T19:34:11.471Z,13.53
2019-02-28T19:36:42.712Z,13.60
2019-02-28T19:39:13.208Z,13.53
2019-02-28T19:41:45.819Z,14.37
2019-02-28T19:44:19.618Z,13.53
2019-02-28T19:46:49.485Z,13.27
2019-02-28T19:49:21.667Z,13.70
2019-02-28T19:51:53.092Z,14.73
2019-02-28T19:54:24.092Z,13.70
2019-02-28T19:56:53.912Z,12.20
2019-02-28T19:59:24.254Z,12.67
2019-02-28T20:01:54.099Z,11.93
2019-02-28T20:04:23.862Z,12.03
2019-02-28T20:06:54.172Z,10.10
2019-02-28T20:09:24.462Z,11.30
2019-02-28T20:11:54.417Z,9.80
2019-02-28T20:14:24.553Z,9.60
2019-02-28T20:16:54.385Z,9.60
2019-02-28T20:19:26.944Z,9.90
2019-02-28T20:21:57.492Z,7.97
2019-02-28T20:24:27.547Z,7.43
2019-02-28T20:26:57.384Z,8.93
2019-02-28T20:29:27.879Z,8.57
2019-02-28T20:31:58.354Z,7.33
2019-02-28T20:34:29.186Z,7.10
2019-02-28T20:37:05.847Z,7.40
2019-02-28T20:39:35.800Z,6.57
2019-02-28T20:42:08.838Z,6.93
2019-02-28T20:44:38.615Z,7.03
2019-02-28T20:47:09.554Z,6.47
2019-02-28T20:49:39.415Z,6.60
2019-02-28T20:52:09.304Z,6.33
2019-02-28T20:54:39.490Z,5.70
2019-02-28T20:57:09.239Z,5.90
2019-02-28T20:59:39.058Z,6.17
2019-02-28T21:02:09.223Z,5.83
2019-02-28T21:04:39.014Z,6.97
2019-02-28T21:07:08.797Z,5.20
2019-02-28T21:09:45.023Z,5.60
2019-02-28T21:12:10.389Z,5.80
2019-02-28T21:14:40.120Z,5.43
2019-02-28T21:17:10.282Z,5.80
2019-02-28T21:19:40.193Z,6.27
2019-02-28T21:22:10.015Z,6.23
2019-02-28T21:24:40.442Z,5.37
2019-02-28T21:27:10.089Z,5.20
2019-02-28T21:29:40.698Z,5.47
2019-02-28T21:32:10.699Z,4.63
2019-02-28T21:34:40.429Z,5.23
2019-02-28T21:37:10.236Z,5.50
2019-02-28T21:39:40.184Z,5.10
2019-02-28T21:42:09.754Z,5.47
2019-02-28T21:44:39.250Z,5.30
2019-02-28T21:47:08.909Z,4.97
2019-02-28T21:49:38.452Z,4.90
2019-02-28T21:52:07.795Z,5.43
2019-02-28T21:54:37.415Z,4.60
2019-02-28T21:57:06.829Z,5.07
2019-02-28T21:59:37.065Z,5.13
2019-02-28T22:02:07.676Z,3.97
2019-02-28T22:04:39.186Z,5.60
2019-02-28T22:07:08.520Z,5.60
2019-02-28T22:09:38.099Z,5.40
2019-02-28T22:12:07.386Z,4.60
2019-02-28T22:14:36.710Z,5.00
2019-02-28T22:17:06.499Z,4.90
2019-02-28T22:19:35.849Z,5.27
2019-02-28T22:22:08.402Z,4.90
2019-02-28T22:24:38.982Z,4.50
2019-02-28T22:27:08.228Z,4.80
2019-02-28T22:29:37.548Z,4.40
2019-02-28T22:32:24.453Z,5.07
2019-02-28T22:35:13.036Z,4.83
2019-02-28T22:37:45.917Z,4.77
2019-02-28T22:40:15.177Z,5.00
2019-02-28T22:42:44.768Z,4.30
2019-02-28T22:45:14.317Z,4.20
2019-02-28T22:47:43.662Z,4.90
2019-02-28T22:50:17.108Z,4.93
2019-02-28T22:52:46.791Z,4.00
2019-02-28T22:55:16.286Z,4.40
2019-02-28T22:57:45.935Z,5.60
2019-02-28T23:00:27.186Z,4.00
2019-02-28T23:02:56.586Z,4.77
2019-02-28T23:05:25.965Z,5.03
2019-02-28T23:07:57.279Z,4.73
2019-02-28T23:10:26.679Z,4.50
2019-02-28T23:12:55.966Z,6.43
2019-02-28T23:15:25.226Z,6.70
2019-02-28T23:17:55.417Z,6.30
2019-02-28T23:20:25.189Z,5.10
2019-02-28T23:22:54.555Z,6.00
2019-02-28T23:25:24.611Z,4.27
2019-02-28T23:28:09.848Z,4.13
2019-02-28T23:31:18.898Z,4.30
2019-02-28T23:33:48.276Z,5.20
2019-02-28T23:36:17.996Z,4.97
2019-02-28T23:38:47.401Z,5.13
2019-02-28T23:41:16.661Z,4.60
2019-02-28T23:43:46.260Z,4.30
2019-02-28T23:46:15.578Z,5.07
2019-02-28T23:48:44.828Z,4.53
2019-02-28T23:51:14.366Z,4.33
2019-02-28T23:53:43.797Z,4.80
2019-02-28T23:56:13.034Z,4.73
2019-02-28T23:58:42.797Z,5.30
